createdAt,value
2018-12-26T00:01:29.264Z,207.25
2018-12-26T00:04:00.605Z,198.75
2018-12-26T00:06:32.983Z,186.25
2018-12-26T00:09:06.142Z,196.75
2018-12-26T00:11:37.623Z,201.00
2018-12-26T00:14:09.470Z,196.50
2018-12-26T00:16:40.847Z,197.00
2018-12-26T00:19:12.187Z,204.75
2018-12-26T00:21:43.442Z,192.00
2018-12-26T00:24:15.602Z,199.25
2018-12-26T00:26:51.338Z,206.50
2018-12-26T00:29:23.083Z,203.75
2018-12-26T00:31:54.595Z,195.25
2018-12-26T00:34:26.228Z,199.00
2018-12-26T00:36:57.615Z,213.50
2018-12-26T00:39:29.404Z,206.00
2018-12-26T00:42:00.828Z,206.25
2018-12-26T00:44:32.535Z,212.75
2018-12-26T00:47:03.844Z,216.50
2018-12-26T00:49:35.649Z,185.75
2018-12-26T00:52:06.810Z,213.50
2018-12-26T00:54:38.816Z,208.75
2018-12-26T00:57:10.356Z,183.75
2018-12-26T00:59:42.036Z,220.75
2018-12-26T01:02:13.390Z,210.25
2018-12-26T01:04:44.632Z,227.00
2018-12-26T01:07:15.967Z,240.25
2018-12-26T01:09:47.392Z,238.50
2018-12-26T01:12:19.044Z,221.25
2018-12-26T01:14:50.922Z,217.25
2018-12-26T01:17:23.347Z,232.00
2018-12-26T01:19:54.974Z,267.75
2018-12-26T01:22:26.458Z,253.50
2018-12-26T01:24:58.323Z,241.25
2018-12-26T01:27:29.817Z,266.25
2018-12-26T01:30:01.226Z,239.75
2018-12-26T01:32:32.626Z,267.25
2018-12-26T01:35:04.081Z,286.00
2018-12-26T01:37:36.779Z,306.75
2018-12-26T01:40:08.149Z,294.75
2018-12-26T01:42:39.580Z,305.75
2018-12-26T01:45:10.881Z,306.50
2018-12-26T01:47:42.069Z,298.25
2018-12-26T01:50:13.608Z,308.50
2018-12-26T01:52:44.946Z,318.00
2018-12-26T01:55:16.879Z,393.75
2018-12-26T01:57:48.440Z,378.50
2018-12-26T02:00:20.087Z,329.25
2018-12-26T02:02:51.367Z,313.00
2018-12-26T02:05:22.775Z,320.50
2018-12-26T02:07:54.168Z,374.00
2018-12-26T02:10:25.611Z,369.25
2018-12-26T02:12:57.264Z,423.75
2018-12-26T02:15:29.545Z,409.00
2018-12-26T02:18:01.024Z,428.25
2018-12-26T02:20:33.825Z,471.60
2018-12-26T02:23:05.521Z,291.75
2018-12-26T02:25:37.306Z,356.75
2018-12-26T02:28:08.695Z,358.25
2018-12-26T02:30:39.892Z,395.50
2018-12-26T02:33:11.431Z,371.25
2018-12-26T02:35:42.857Z,383.75
2018-12-26T02:38:14.092Z,422.75
2018-12-26T02:40:45.651Z,418.50
2018-12-26T02:43:17.060Z,429.60
2018-12-26T02:45:48.636Z,442.20
2018-12-26T02:48:20.300Z,438.00
2018-12-26T02:50:51.709Z,457.00
2018-12-26T02:53:23.024Z,470.40
2018-12-26T02:55:55.079Z,411.20
2018-12-26T02:58:26.621Z,401.80
2018-12-26T03:00:58.294Z,406.00
2018-12-26T03:03:30.484Z,411.50
2018-12-26T03:06:02.202Z,413.00
2018-12-26T03:08:33.542Z,402.25
2018-12-26T03:11:05.001Z,381.50
2018-12-26T03:13:36.618Z,381.00
2018-12-26T03:16:08.099Z,376.25
2018-12-26T03:18:39.410Z,371.00
2018-12-26T03:21:10.805Z,354.75
2018-12-26T03:23:42.029Z,374.00
2018-12-26T03:26:13.877Z,387.25
2018-12-26T03:28:45.180Z,385.50
2018-12-26T03:31:17.078Z,422.50
2018-12-26T03:33:48.693Z,425.00
2018-12-26T03:36:19.971Z,398.50
2018-12-26T03:38:51.665Z,408.75
2018-12-26T03:41:23.646Z,400.25
2018-12-26T03:43:54.903Z,407.00
2018-12-26T03:46:26.748Z,402.50
2018-12-26T03:48:58.006Z,354.00
2018-12-26T03:51:29.544Z,336.50
2018-12-26T03:54:01.264Z,363.50
2018-12-26T03:56:32.802Z,365.50
2018-12-26T03:59:04.275Z,374.75
2018-12-26T04:01:35.825Z,376.25
2018-12-26T04:04:07.404Z,389.50
2018-12-26T04:06:39.283Z,350.00
2018-12-26T04:09:11.059Z,359.50
2018-12-26T04:11:42.286Z,335.75
2018-12-26T04:14:13.786Z,310.75
2018-12-26T04:16:45.944Z,293.00
2018-12-26T04:19:17.123Z,261.00
2018-12-26T04:21:48.741Z,258.00
2018-12-26T04:24:19.853Z,253.00
2018-12-26T04:26:51.884Z,243.75
2018-12-26T04:29:23.501Z,242.25
2018-12-26T04:31:55.047Z,227.75
2018-12-26T04:34:26.370Z,214.50
2018-12-26T04:36:57.951Z,226.75
2018-12-26T04:39:29.207Z,230.25
2018-12-26T04:42:00.819Z,192.75
2018-12-26T04:44:32.405Z,206.25
2018-12-26T04:47:03.884Z,200.75
2018-12-26T04:49:35.719Z,194.75
2018-12-26T04:52:07.000Z,196.75
2018-12-26T04:54:38.425Z,197.50
2018-12-26T04:57:10.290Z,211.00
2018-12-26T04:59:41.921Z,200.50
2018-12-26T05:02:13.580Z,219.50
2018-12-26T05:04:45.253Z,198.75
2018-12-26T05:07:16.809Z,208.25
2018-12-26T05:09:48.302Z,202.25
2018-12-26T05:12:20.125Z,196.50
2018-12-26T05:14:51.795Z,222.50
2018-12-26T05:17:23.924Z,186.50
2018-12-26T05:19:55.350Z,204.00
2018-12-26T05:22:26.907Z,226.00
2018-12-26T05:24:58.422Z,236.50
2018-12-26T05:27:34.303Z,255.00
2018-12-26T05:30:05.051Z,249.50
2018-12-26T05:32:36.679Z,253.50
2018-12-26T05:35:08.397Z,235.00
2018-12-26T05:37:39.988Z,220.50
2018-12-26T05:40:11.571Z,220.75
2018-12-26T05:42:43.132Z,219.50
2018-12-26T05:45:16.023Z,201.50
2018-12-26T05:47:47.645Z,200.25
2018-12-26T05:50:19.331Z,192.75
2018-12-26T05:52:50.953Z,199.00
2018-12-26T05:55:22.623Z,195.50
2018-12-26T05:57:54.847Z,196.75
2018-12-26T06:00:26.569Z,198.50
2018-12-26T06:02:58.200Z,203.75
2018-12-26T06:05:29.890Z,203.50
2018-12-26T06:08:01.713Z,141.00
2018-12-26T06:10:33.357Z,183.40
2018-12-26T06:13:04.867Z,172.60
2018-12-26T06:15:38.128Z,180.60
2018-12-26T06:18:09.994Z,174.00
2018-12-26T06:20:41.658Z,195.75
2018-12-26T06:23:13.318Z,190.00
2018-12-26T06:25:44.731Z,169.20
2018-12-26T06:28:16.741Z,206.50
2018-12-26T06:30:48.423Z,190.75
2018-12-26T06:33:20.028Z,179.60
2018-12-26T06:35:51.868Z,182.80
2018-12-26T06:38:23.320Z,168.00
2018-12-26T06:40:55.987Z,160.20
2018-12-26T06:43:27.541Z,175.60
2018-12-26T06:46:02.652Z,170.00
2018-12-26T06:48:48.384Z,166.20
2018-12-26T06:51:25.709Z,159.20
2018-12-26T06:53:57.393Z,152.20
2018-12-26T06:56:28.946Z,146.80
2018-12-26T06:59:00.800Z,154.20
2018-12-26T07:01:32.089Z,165.80
2018-12-26T07:04:03.568Z,157.60
2018-12-26T07:06:35.024Z,162.80
2018-12-26T07:09:07.954Z,151.80
2018-12-26T07:11:39.379Z,141.80
2018-12-26T07:14:10.581Z,163.20
2018-12-26T07:16:42.023Z,146.60
2018-12-26T07:19:13.904Z,161.00
2018-12-26T07:21:45.346Z,130.00
2018-12-26T07:24:16.631Z,132.00
2018-12-26T07:26:48.061Z,129.60
2018-12-26T07:29:19.875Z,173.60
2018-12-26T07:31:51.342Z,142.20
2018-12-26T07:34:22.843Z,124.00
2018-12-26T07:36:54.221Z,123.60
2018-12-26T07:39:25.558Z,142.80
2018-12-26T07:41:56.914Z,125.20
2018-12-26T07:44:44.166Z,139.20
2018-12-26T07:47:15.656Z,147.00
2018-12-26T07:49:47.074Z,130.80
2018-12-26T07:52:18.543Z,130.60
2018-12-26T07:54:49.860Z,122.20
2018-12-26T07:57:21.206Z,133.20
2018-12-26T07:59:53.305Z,140.60
2018-12-26T08:02:24.514Z,137.80
2018-12-26T08:04:56.557Z,146.40
2018-12-26T08:07:27.872Z,144.40
2018-12-26T08:09:59.464Z,154.60
2018-12-26T08:12:30.745Z,163.40
2018-12-26T08:15:10.165Z,147.20
2018-12-26T08:17:35.337Z,149.00
2018-12-26T08:20:07.865Z,151.60
2018-12-26T08:22:39.198Z,154.60
2018-12-26T08:25:10.614Z,144.20
2018-12-26T08:27:42.068Z,147.20
2018-12-26T08:30:14.089Z,153.40
2018-12-26T08:32:45.364Z,145.20
2018-12-26T08:35:16.644Z,137.20
2018-12-26T08:37:47.898Z,144.80
2018-12-26T08:40:19.079Z,148.80
2018-12-26T08:42:50.641Z,158.20
2018-12-26T08:45:21.978Z,153.20
2018-12-26T08:47:53.146Z,152.40
2018-12-26T08:50:25.411Z,167.60
2018-12-26T08:52:56.696Z,149.40
2018-12-26T08:55:27.878Z,143.80
2018-12-26T08:58:01.781Z,135.20
2018-12-26T09:00:33.548Z,138.80
2018-12-26T09:03:04.849Z,138.60
2018-12-26T09:05:36.465Z,151.00
2018-12-26T09:08:07.904Z,136.80
2018-12-26T09:10:39.438Z,128.20
2018-12-26T09:13:10.889Z,133.40
2018-12-26T09:15:42.803Z,120.40
2018-12-26T09:18:15.056Z,120.60
2018-12-26T09:20:47.160Z,121.80
2018-12-26T09:23:18.832Z,128.40
2018-12-26T09:25:55.544Z,123.20
2018-12-26T09:28:28.506Z,129.80
2018-12-26T09:31:00.523Z,128.60
2018-12-26T09:33:31.829Z,133.40
2018-12-26T09:36:03.272Z,129.40
2018-12-26T09:38:35.173Z,122.40
2018-12-26T09:41:06.922Z,124.40
2018-12-26T09:43:38.350Z,137.60
2018-12-26T09:46:09.777Z,134.40
2018-12-26T09:48:41.422Z,131.60
2018-12-26T09:51:13.041Z,134.40
2018-12-26T09:53:44.317Z,118.00
2018-12-26T09:56:45.454Z,127.00
2018-12-26T09:59:17.203Z,129.40
2018-12-26T10:01:49.231Z,131.00
2018-12-26T10:04:22.177Z,133.60
2018-12-26T10:06:53.767Z,127.60
2018-12-26T10:09:25.240Z,131.60
2018-12-26T10:11:56.828Z,125.80
2018-12-26T10:14:28.542Z,127.40
2018-12-26T10:17:00.155Z,123.20
2018-12-26T10:19:31.674Z,116.40
2018-12-26T10:22:03.538Z,123.20
2018-12-26T10:24:35.197Z,125.40
2018-12-26T10:27:06.869Z,131.20
2018-12-26T10:29:38.324Z,126.60
2018-12-26T10:32:10.948Z,126.00
2018-12-26T10:34:45.305Z,121.80
2018-12-26T10:37:17.595Z,110.40
2018-12-26T10:39:49.040Z,112.20
2018-12-26T10:42:21.033Z,117.00
2018-12-26T10:44:52.276Z,107.40
2018-12-26T10:47:23.727Z,126.40
2018-12-26T10:49:56.846Z,107.20
2018-12-26T10:52:28.632Z,116.20
2018-12-26T10:55:03.246Z,119.20
2018-12-26T10:57:35.977Z,116.20
2018-12-26T11:00:08.806Z,99.80
2018-12-26T11:02:40.778Z,101.00
2018-12-26T11:05:12.246Z,118.40
2018-12-26T11:07:43.952Z,109.40
2018-12-26T11:10:16.531Z,121.80
2018-12-26T11:12:47.806Z,101.20
2018-12-26T11:15:19.180Z,116.00
2018-12-26T11:17:51.132Z,113.60
2018-12-26T11:20:23.180Z,111.80
2018-12-26T11:22:55.190Z,109.40
2018-12-26T11:25:26.937Z,104.20
2018-12-26T11:27:58.046Z,108.80
2018-12-26T11:30:29.064Z,104.20
2018-12-26T11:33:01.509Z,105.20
2018-12-26T11:35:32.807Z,103.20
2018-12-26T11:38:04.284Z,109.20
2018-12-26T11:40:35.518Z,121.60
2018-12-26T11:43:07.001Z,108.60
2018-12-26T11:45:38.625Z,117.20
2018-12-26T11:48:10.509Z,112.40
2018-12-26T11:50:41.757Z,115.60
2018-12-26T11:53:13.101Z,117.00
2018-12-26T11:55:44.520Z,121.20
2018-12-26T11:58:16.367Z,120.20
2018-12-26T12:00:47.899Z,112.80
2018-12-26T12:03:19.778Z,106.00
2018-12-26T12:05:51.177Z,130.00
2018-12-26T12:08:22.771Z,123.20
2018-12-26T12:10:54.216Z,120.80
2018-12-26T12:13:25.864Z,116.80
2018-12-26T12:15:57.120Z,128.80
2018-12-26T12:18:28.305Z,125.00
2018-12-26T12:21:00.226Z,126.60
2018-12-26T12:23:32.101Z,134.20
2018-12-26T12:26:03.269Z,121.20
2018-12-26T12:28:36.377Z,131.00
2018-12-26T12:31:11.977Z,140.00
2018-12-26T12:33:44.559Z,128.80
2018-12-26T12:36:28.550Z,129.00
2018-12-26T12:39:01.257Z,148.40
2018-12-26T12:41:34.446Z,167.20
2018-12-26T12:44:05.970Z,158.20
2018-12-26T12:46:37.288Z,169.40
2018-12-26T12:49:14.082Z,161.20
2018-12-26T12:51:52.120Z,168.60
2018-12-26T12:54:24.199Z,173.80
2018-12-26T12:56:59.582Z,164.80
2018-12-26T12:59:32.556Z,181.40
2018-12-26T13:02:03.806Z,154.00
2018-12-26T13:04:37.839Z,170.20
2018-12-26T13:07:09.250Z,161.40
2018-12-26T13:09:40.735Z,173.00
2018-12-26T13:12:12.106Z,166.60
2018-12-26T13:14:43.280Z,174.00
2018-12-26T13:17:14.472Z,168.40
2018-12-26T13:19:46.332Z,168.80
2018-12-26T13:22:18.091Z,176.50
2018-12-26T13:24:49.993Z,168.25
2018-12-26T13:27:21.250Z,167.75
2018-12-26T13:29:53.846Z,174.00
2018-12-26T13:32:25.345Z,173.00
2018-12-26T13:34:59.414Z,180.00
2018-12-26T13:37:42.285Z,166.00
2018-12-26T13:40:13.576Z,188.00
2018-12-26T13:42:44.805Z,165.00
2018-12-26T13:45:16.498Z,164.25
2018-12-26T13:47:47.714Z,183.75
2018-12-26T13:50:19.703Z,191.25
2018-12-26T13:52:51.325Z,205.75
2018-12-26T13:55:22.917Z,201.00
2018-12-26T13:57:54.119Z,200.50
2018-12-26T14:00:25.846Z,217.00
2018-12-26T14:02:57.000Z,212.25
2018-12-26T14:05:28.986Z,222.75
2018-12-26T14:08:00.585Z,208.50
2018-12-26T14:10:31.773Z,220.25
2018-12-26T14:13:04.145Z,246.25
2018-12-26T14:15:44.397Z,239.75
2018-12-26T14:18:20.917Z,239.75
2018-12-26T14:20:53.279Z,243.50
2018-12-26T14:23:25.004Z,250.75
2018-12-26T14:25:56.637Z,258.50
2018-12-26T14:28:29.113Z,260.75
2018-12-26T14:31:00.967Z,270.00
2018-12-26T14:33:33.827Z,277.25
2018-12-26T14:36:05.651Z,270.00
2018-12-26T14:38:37.161Z,295.00
2018-12-26T14:41:08.434Z,297.75
2018-12-26T14:43:40.002Z,293.25
2018-12-26T14:46:11.158Z,289.25
2018-12-26T14:48:42.451Z,285.75
2018-12-26T14:51:13.808Z,269.00
2018-12-26T14:53:49.464Z,269.75
2018-12-26T14:56:23.267Z,263.75
2018-12-26T14:58:54.649Z,277.50
2018-12-26T15:01:26.016Z,238.75
2018-12-26T15:03:57.149Z,247.75
2018-12-26T15:06:28.862Z,259.75
2018-12-26T15:09:00.378Z,268.50
2018-12-26T15:11:32.354Z,271.50
2018-12-26T15:14:03.612Z,257.50
2018-12-26T15:16:34.896Z,275.75
2018-12-26T15:19:25.125Z,303.25
2018-12-26T15:21:56.493Z,323.25
2018-12-26T15:24:28.561Z,364.00
2018-12-26T15:27:00.157Z,353.00
2018-12-26T15:29:31.392Z,319.00
2018-12-26T15:32:03.054Z,294.50
2018-12-26T15:34:34.338Z,303.50
2018-12-26T15:37:06.201Z,295.00
2018-12-26T15:39:37.668Z,302.00
2018-12-26T15:42:09.286Z,320.25
2018-12-26T15:44:40.438Z,316.50
2018-12-26T15:47:12.784Z,317.25
2018-12-26T15:49:43.966Z,353.75
2018-12-26T15:52:15.780Z,341.00
2018-12-26T15:54:46.929Z,343.00
2018-12-26T15:57:18.310Z,352.75
2018-12-26T15:59:49.626Z,360.25
2018-12-26T16:02:21.333Z,340.75
2018-12-26T16:04:52.484Z,356.25
2018-12-26T16:07:24.388Z,369.25
2018-12-26T16:09:55.847Z,361.75
2018-12-26T16:12:27.623Z,355.00
2018-12-26T16:14:59.035Z,378.75
2018-12-26T16:17:30.820Z,369.75
2018-12-26T16:20:02.219Z,378.75
2018-12-26T16:22:33.813Z,390.75
2018-12-26T16:25:05.453Z,374.00
2018-12-26T16:27:36.898Z,373.25
2018-12-26T16:30:10.009Z,360.00
2018-12-26T16:32:41.298Z,372.50
2018-12-26T16:35:12.834Z,361.00
2018-12-26T16:37:44.655Z,382.75
2018-12-26T16:40:16.219Z,403.20
2018-12-26T16:42:48.186Z,381.25
2018-12-26T16:45:19.415Z,385.50
2018-12-26T16:47:50.822Z,388.50
2018-12-26T16:50:26.979Z,411.00
2018-12-26T16:52:55.551Z,420.20
2018-12-26T16:55:26.833Z,401.75
2018-12-26T16:57:58.294Z,402.50
2018-12-26T17:00:29.479Z,395.75
2018-12-26T17:03:00.977Z,420.50
2018-12-26T17:05:32.465Z,408.50
2018-12-26T17:08:04.530Z,409.25
2018-12-26T17:10:36.040Z,398.75
2018-12-26T17:13:07.837Z,394.75
2018-12-26T17:15:39.036Z,417.80
2018-12-26T17:18:10.642Z,390.00
2018-12-26T17:20:42.278Z,418.00
2018-12-26T17:23:14.027Z,413.00
2018-12-26T17:25:45.303Z,410.20
2018-12-26T17:28:17.296Z,408.00
2018-12-26T17:30:48.607Z,417.60
2018-12-26T17:33:20.250Z,446.20
2018-12-26T17:35:51.799Z,445.20
2018-12-26T17:38:23.704Z,446.00
2018-12-26T17:40:55.200Z,422.60
2018-12-26T17:43:27.706Z,428.60
2018-12-26T17:45:59.223Z,445.80
2018-12-26T17:48:34.029Z,454.80
2018-12-26T17:51:19.520Z,474.20
2018-12-26T17:54:29.395Z,458.20
2018-12-26T17:57:06.612Z,458.00
2018-12-26T17:59:45.900Z,468.20
2018-12-26T18:02:25.116Z,486.60
2018-12-26T18:04:56.501Z,525.60
2018-12-26T18:07:27.800Z,507.60
2018-12-26T18:09:59.476Z,525.80
2018-12-26T18:12:35.963Z,525.40
2018-12-26T18:15:10.517Z,527.20
2018-12-26T18:17:41.813Z,516.00
2018-12-26T18:20:13.476Z,544.40
2018-12-26T18:22:45.188Z,572.80
2018-12-26T18:25:16.873Z,589.40
2018-12-26T18:27:48.677Z,578.80
2018-12-26T18:30:21.171Z,565.40
2018-12-26T18:32:53.219Z,571.60
2018-12-26T18:35:24.464Z,597.00
2018-12-26T18:37:56.003Z,583.00
2018-12-26T18:40:28.053Z,584.60
2018-12-26T18:42:59.529Z,580.80
2018-12-26T18:45:30.900Z,600.40
2018-12-26T18:48:02.458Z,591.17
2018-12-26T18:50:34.337Z,585.00
2018-12-26T18:53:05.962Z,571.17
2018-12-26T18:55:37.081Z,587.83
2018-12-26T18:58:08.611Z,626.00
2018-12-26T19:00:40.007Z,610.50
2018-12-26T19:03:11.603Z,643.00
2018-12-26T19:05:43.467Z,633.40
2018-12-26T19:08:14.755Z,634.00
2018-12-26T19:10:46.443Z,625.60
2018-12-26T19:13:18.436Z,642.00
2018-12-26T19:15:49.695Z,641.80
2018-12-26T19:18:21.213Z,652.00
2018-12-26T19:20:52.612Z,616.40
2018-12-26T19:23:24.049Z,640.20
2018-12-26T19:25:55.191Z,621.80
2018-12-26T19:28:27.346Z,647.40
2018-12-26T19:30:59.750Z,630.80
2018-12-26T19:33:31.495Z,646.80
2018-12-26T19:36:04.369Z,648.80
2018-12-26T19:38:35.732Z,634.60
2018-12-26T19:41:07.698Z,651.60
2018-12-26T19:43:40.805Z,632.60
2018-12-26T19:46:12.282Z,622.80
2018-12-26T19:48:43.981Z,655.00
2018-12-26T19:51:15.301Z,628.60
2018-12-26T19:53:53.519Z,646.17
2018-12-26T19:56:25.085Z,605.50
2018-12-26T19:58:56.696Z,651.40
2018-12-26T20:01:29.506Z,616.80
2018-12-26T20:04:01.150Z,615.83
2018-12-26T20:06:32.487Z,625.00
2018-12-26T20:09:04.427Z,636.33
2018-12-26T20:11:38.505Z,617.80
2018-12-26T20:14:09.554Z,624.50
2018-12-26T20:16:40.861Z,626.00
2018-12-26T20:19:12.428Z,627.50
2018-12-26T20:21:43.760Z,623.83
2018-12-26T20:24:15.238Z,611.17
2018-12-26T20:26:46.886Z,634.40
2018-12-26T20:29:18.702Z,609.00
2018-12-26T20:31:56.865Z,623.00
2018-12-26T20:34:23.190Z,617.60
2018-12-26T20:36:54.910Z,612.67
2018-12-26T20:39:26.604Z,619.40
2018-12-26T20:41:58.704Z,613.00
2018-12-26T20:44:30.101Z,599.20
2018-12-26T20:47:01.708Z,645.20
2018-12-26T20:49:32.990Z,606.00
2018-12-26T20:52:04.672Z,615.00
2018-12-26T20:54:36.394Z,579.20
2018-12-26T20:57:07.876Z,599.40
2018-12-26T20:59:39.380Z,564.40
2018-12-26T21:02:11.022Z,595.60
2018-12-26T21:04:42.265Z,588.80
2018-12-26T21:07:13.518Z,581.00
2018-12-26T21:09:44.978Z,595.00
2018-12-26T21:12:16.954Z,601.60
2018-12-26T21:14:48.297Z,575.40
2018-12-26T21:17:19.696Z,570.00
2018-12-26T21:19:50.999Z,588.20
2018-12-26T21:22:22.471Z,593.00
2018-12-26T21:24:54.165Z,547.60
2018-12-26T21:27:25.484Z,569.00
2018-12-26T21:29:57.164Z,562.80
2018-12-26T21:32:28.759Z,563.60
2018-12-26T21:35:00.269Z,555.20
2018-12-26T21:37:31.806Z,567.60
2018-12-26T21:40:03.171Z,562.20
2018-12-26T21:42:35.283Z,532.20
2018-12-26T21:45:07.340Z,558.20
2018-12-26T21:47:39.090Z,569.80
2018-12-26T21:50:12.586Z,592.40
2018-12-26T21:52:43.931Z,581.80
2018-12-26T21:55:15.103Z,567.40
2018-12-26T21:57:46.587Z,556.80
2018-12-26T22:00:18.380Z,570.00
2018-12-26T22:02:49.919Z,571.80
2018-12-26T22:05:21.482Z,565.20
2018-12-26T22:07:52.801Z,599.60
2018-12-26T22:10:24.068Z,604.40
2018-12-26T22:12:56.143Z,585.20
2018-12-26T22:15:27.758Z,606.00
2018-12-26T22:17:58.991Z,563.00
2018-12-26T22:20:30.289Z,572.00
2018-12-26T22:23:01.688Z,579.80
2018-12-26T22:25:33.351Z,596.00
2018-12-26T22:28:05.039Z,583.00
2018-12-26T22:30:37.234Z,589.80
2018-12-26T22:33:09.569Z,557.20
2018-12-26T22:35:41.158Z,591.40
2018-12-26T22:38:12.402Z,571.80
2018-12-26T22:40:43.873Z,552.80
2018-12-26T22:43:15.995Z,539.40
2018-12-26T22:45:47.329Z,553.60
2018-12-26T22:48:18.600Z,582.20
2018-12-26T22:50:50.159Z,574.20
2018-12-26T22:53:21.562Z,584.60
2018-12-26T22:55:52.856Z,572.60
2018-12-26T22:58:24.456Z,570.80
2018-12-26T23:00:55.706Z,550.60
2018-12-26T23:03:27.498Z,542.80
2018-12-26T23:05:58.973Z,579.60
2018-12-26T23:08:30.513Z,534.50
2018-12-26T23:11:01.983Z,554.40
2018-12-26T23:13:33.852Z,531.00
2018-12-26T23:16:05.400Z,551.00
2018-12-26T23:18:36.832Z,510.40
2018-12-26T23:21:08.066Z,544.00
2018-12-26T23:23:39.322Z,527.75
2018-12-26T23:26:10.869Z,529.80
2018-12-26T23:28:42.577Z,531.25
2018-12-26T23:31:14.498Z,528.80
2018-12-26T23:33:45.900Z,514.60
2018-12-26T23:36:17.443Z,522.20
2018-12-26T23:38:49.228Z,529.60
2018-12-26T23:41:20.738Z,520.40
2018-12-26T23:43:53.075Z,457.40
2018-12-26T23:46:24.604Z,472.40
2018-12-26T23:48:56.113Z,442.00
2018-12-26T23:51:27.316Z,459.50
2018-12-26T23:53:59.263Z,453.25
2018-12-26T23:56:30.864Z,444.50
2018-12-26T23:59:02.287Z,437.25
